Time;durP1;ratioP1;P1;durP2;ratioP2;P2;SDS_P1;SDS_P2;PMS_P1;PMS_P2;Temp;Humidity;BMP_temperature;BMP_pressure;BME280_temperature;BME280_humidity;BME280_pressure;Samples;Min_cycle;Max_cycle;Signal;HPM_P1;HPM_P2
2021/08/17 00:02:18;;;;;;;3.38;0.88;;;;;19.50;101579.00;;;;5049205;28;20203;-75
2021/08/17 00:04:46;;;;;;;4.50;0.90;;;;;19.40;101583.00;;;;5063085;28;20219;-76
2021/08/17 00:07:13;;;;;;;2.67;0.93;;;;;19.40;101579.00;;;;5069285;28;20210;-75
2021/08/17 00:09:41;;;;;;;4.00;0.80;;;;;19.40;101582.00;;;;5069584;28;20212;-75
2021/08/17 00:12:08;;;;;;;1.80;0.80;;;;;19.40;101582.00;;;;5069045;28;20207;-75
2021/08/17 00:14:35;;;;;;;2.40;0.70;;;;;19.40;101584.00;;;;5069683;28;20199;-75
2021/08/17 00:17:03;;;;;;;3.95;0.90;;;;;19.30;101580.00;;;;5069504;28;20210;-75
2021/08/17 00:19:30;;;;;;;5.47;0.95;;;;;19.30;101577.00;;;;5069282;28;20195;-75
2021/08/17 00:21:59;;;;;;;2.03;1.02;;;;;19.30;101574.00;;;;5068756;28;20218;-75
2021/08/17 00:24:26;;;;;;;4.35;1.35;;;;;19.30;101577.00;;;;5068197;28;20202;-75
2021/08/17 00:26:53;;;;;;;2.47;1.15;;;;;19.20;101583.00;;;;5069320;28;20226;-75
2021/08/17 00:29:20;;;;;;;4.43;1.17;;;;;19.20;101576.00;;;;5069314;28;20207;-76
2021/08/17 00:31:48;;;;;;;4.97;1.10;;;;;19.20;101578.00;;;;5068896;28;20213;-75
2021/08/17 00:34:15;;;;;;;5.15;1.42;;;;;19.20;101576.00;;;;5068765;28;20578;-75
2021/08/17 00:36:42;;;;;;;1.90;0.88;;;;;19.10;101572.00;;;;5068531;28;20242;-75
2021/08/17 00:39:11;;;;;;;3.20;1.35;;;;;19.10;101575.00;;;;5067801;28;20596;-75
2021/08/17 00:41:39;;;;;;;3.75;1.45;;;;;19.10;101566.00;;;;5064497;28;20204;-75
2021/08/17 00:44:16;;;;;;;4.18;1.00;;;;;19.00;101570.00;;;;5048934;28;20209;-76
2021/08/17 00:46:44;;;;;;;2.45;0.95;;;;;19.00;101570.00;;;;5048854;28;20200;-75
2021/08/17 00:49:12;;;;;;;2.70;1.08;;;;;19.00;101563.00;;;;5049012;28;20203;-75
2021/08/17 00:51:39;;;;;;;2.40;0.98;;;;;19.00;101566.00;;;;5048525;28;20196;-75
2021/08/17 00:54:06;;;;;;;2.35;0.95;;;;;18.90;101569.00;;;;5049306;28;20202;-75
2021/08/17 00:56:35;;;;;;;2.20;0.85;;;;;18.90;101560.00;;;;5068705;28;20235;-75
2021/08/17 00:59:03;;;;;;;3.08;1.33;;;;;18.90;101554.00;;;;5069216;28;20240;-75
2021/08/17 01:01:30;;;;;;;3.00;1.13;;;;;18.80;101569.00;;;;5068428;28;20210;-76
2021/08/17 01:03:58;;;;;;;4.05;1.10;;;;;18.80;101560.00;;;;5068124;28;20211;-75
2021/08/17 01:06:26;;;;;;;3.20;1.17;;;;;18.80;101564.00;;;;5067562;28;20214;-75
2021/08/17 01:08:53;;;;;;;2.22;0.90;;;;;18.70;101559.00;;;;5068431;28;20199;-75
2021/08/17 01:11:20;;;;;;;3.17;0.80;;;;;18.70;101559.00;;;;5067217;28;20203;-75
2021/08/17 01:13:50;;;;;;;2.88;1.00;;;;;18.70;101567.00;;;;5067905;28;20203;-75
2021/08/17 01:16:18;;;;;;;2.25;0.82;;;;;18.60;101563.00;;;;5068264;28;20222;-75
2021/08/17 01:18:45;;;;;;;1.67;0.90;;;;;18.60;101562.00;;;;5071932;28;20206;-75
2021/08/17 01:21:13;;;;;;;4.97;1.08;;;;;18.60;101573.00;;;;5072065;28;20209;-75
2021/08/17 01:23:40;;;;;;;1.55;0.73;;;;;18.50;101566.00;;;;5072182;28;20202;-75
2021/08/17 01:26:10;;;;;;;3.67;1.10;;;;;18.50;101568.00;;;;5071809;28;20569;-76
2021/08/17 01:28:37;;;;;;;4.00;1.10;;;;;18.50;101568.00;;;;5071002;28;20202;-75
2021/08/17 01:31:05;;;;;;;2.30;0.90;;;;;18.40;101569.00;;;;5072040;28;20673;-75
2021/08/17 01:33:33;;;;;;;2.78;0.80;;;;;18.40;101577.00;;;;5072062;28;20187;-75
2021/08/17 01:36:01;;;;;;;3.42;0.70;;;;;18.40;101574.00;;;;5071948;28;20234;-75
2021/08/17 01:38:29;;;;;;;3.08;1.23;;;;;18.40;101577.00;;;;5071098;28;20242;-76
2021/08/17 01:40:56;;;;;;;2.15;0.80;;;;;18.30;101578.00;;;;5072323;28;20199;-75
2021/08/17 01:43:25;;;;;;;3.97;1.20;;;;;18.30;101577.00;;;;5071534;28;20191;-75
2021/08/17 01:45:57;;;;;;;2.42;1.02;;;;;18.20;101585.00;;;;5064911;28;20199;-75
2021/08/17 01:48:27;;;;;;;6.43;1.45;;;;;18.30;101583.00;;;;5051454;28;20657;-75
2021/08/17 01:50:55;;;;;;;3.80;1.23;;;;;18.20;101588.00;;;;5051486;28;20192;-75
2021/08/17 01:53:23;;;;;;;1.52;0.60;;;;;18.20;101586.00;;;;5051569;28;20282;-75
2021/08/17 01:55:52;;;;;;;5.32;1.58;;;;;18.20;101588.00;;;;5052024;28;20228;-75
2021/08/17 01:58:19;;;;;;;2.67;1.20;;;;;18.20;101588.00;;;;5051853;28;20196;-75
2021/08/17 02:00:48;;;;;;;3.03;0.82;;;;;18.10;101584.00;;;;5051808;28;20203;-75
2021/08/17 02:03:15;;;;;;;2.10;0.82;;;;;18.10;101586.00;;;;5050854;28;20211;-75
2021/08/17 02:05:42;;;;;;;2.38;0.98;;;;;18.10;101583.00;;;;5051459;28;20206;-75
2021/08/17 02:08:10;;;;;;;3.10;1.40;;;;;18.10;101577.00;;;;5051088;28;20219;-76
2021/08/17 02:10:37;;;;;;;1.85;0.70;;;;;18.00;101579.00;;;;5051914;28;20207;-75
2021/08/17 02:13:05;;;;;;;1.48;0.98;;;;;18.00;101582.00;;;;5051277;28;20207;-75
2021/08/17 02:15:33;;;;;;;4.53;1.30;;;;;18.00;101584.00;;;;5051617;28;20224;-75
2021/08/17 02:18:01;;;;;;;3.63;0.80;;;;;18.00;101585.00;;;;5051915;28;20203;-75
2021/08/17 02:20:29;;;;;;;2.47;0.90;;;;;18.00;101587.00;;;;5051138;28;20214;-75
2021/08/17 02:22:56;;;;;;;1.48;0.57;;;;;18.00;101593.00;;;;5050185;28;20199;-75
2021/08/17 02:25:23;;;;;;;3.05;1.05;;;;;17.90;101587.00;;;;5051384;28;20209;-75
2021/08/17 02:27:51;;;;;;;3.85;0.70;;;;;17.90;101589.00;;;;5050731;28;20206;-75
2021/08/17 02:30:18;;;;;;;4.53;0.90;;;;;17.90;101592.00;;;;5050799;28;20199;-75
2021/08/17 02:32:45;;;;;;;2.38;0.82;;;;;17.90;101591.00;;;;5051291;28;20211;-76
2021/08/17 02:35:14;;;;;;;2.30;0.93;;;;;17.90;101588.00;;;;5051222;28;20206;-75
2021/08/17 02:37:41;;;;;;;4.00;0.85;;;;;17.90;101588.00;;;;5050111;28;20666;-75
2021/08/17 02:40:10;;;;;;;2.75;1.27;;;;;17.90;101596.00;;;;5050745;28;20215;-75
2021/08/17 02:42:37;;;;;;;2.55;0.90;;;;;17.90;101580.00;;;;5050747;28;20206;-75
2021/08/17 02:45:05;;;;;;;2.97;0.80;;;;;17.90;101584.00;;;;5050970;28;20199;-75
2021/08/17 02:47:33;;;;;;;4.07;1.00;;;;;17.90;101596.00;;;;5051054;28;20203;-75
2021/08/17 02:50:00;;;;;;;4.82;1.17;;;;;17.80;101584.00;;;;5051327;28;20196;-75
2021/08/17 02:52:29;;;;;;;1.75;0.88;;;;;17.80;101590.00;;;;5050372;28;20207;-75
2021/08/17 02:54:56;;;;;;;1.10;0.57;;;;;17.90;101584.00;;;;5051120;28;20577;-75
2021/08/17 02:57:24;;;;;;;2.13;0.93;;;;;17.80;101575.00;;;;5051131;28;20230;-76
2021/08/17 02:59:51;;;;;;;2.13;0.70;;;;;17.80;101581.00;;;;5051475;28;20231;-75
2021/08/17 03:02:18;;;;;;;1.17;0.73;;;;;17.80;101579.00;;;;5050207;28;20235;-75
2021/08/17 03:04:45;;;;;;;3.80;1.23;;;;;17.80;101576.00;;;;5050740;28;20226;-75
2021/08/17 03:07:13;;;;;;;3.33;1.17;;;;;17.80;101580.00;;;;5050853;28;20204;-75
2021/08/17 03:09:41;;;;;;;3.55;0.80;;;;;17.80;101571.00;;;;5050550;28;20199;-75
2021/08/17 03:12:09;;;;;;;1.65;0.90;;;;;17.80;101575.00;;;;5050680;28;20207;-75
2021/08/17 03:14:36;;;;;;;1.58;0.85;;;;;17.80;101568.00;;;;5050138;28;20204;-75
2021/08/17 03:17:04;;;;;;;1.33;0.68;;;;;17.80;101557.00;;;;5050603;28;20231;-75
2021/08/17 03:19:31;;;;;;;2.60;0.82;;;;;17.80;101555.00;;;;5050911;28;20203;-75
2021/08/17 03:21:58;;;;;;;1.98;0.80;;;;;17.80;101565.00;;;;5050776;28;20199;-75
2021/08/17 03:24:25;;;;;;;1.45;0.95;;;;;17.80;101567.00;;;;5049659;28;20207;-75
2021/08/17 03:26:54;;;;;;;1.38;1.05;;;;;17.80;101562.00;;;;5050488;28;20204;-75
2021/08/17 03:29:21;;;;;;;4.05;1.40;;;;;17.80;101578.00;;;;5049942;28;20211;-75
2021/08/17 03:31:48;;;;;;;1.52;0.85;;;;;17.80;101573.00;;;;5050244;28;20200;-75
2021/08/17 03:34:16;;;;;;;2.70;0.88;;;;;17.80;101570.00;;;;5050243;28;20207;-75
2021/08/17 03:36:43;;;;;;;3.30;0.82;;;;;17.80;101560.00;;;;5049437;28;20235;-75
2021/08/17 03:39:10;;;;;;;1.27;0.73;;;;;17.80;101559.00;;;;5049446;28;20224;-75
2021/08/17 03:41:38;;;;;;;4.55;0.90;;;;;17.80;101557.00;;;;5049958;28;20203;-75
2021/08/17 03:44:06;;;;;;;1.23;0.60;;;;;17.80;101552.00;;;;5049458;28;20206;-75
2021/08/17 03:46:34;;;;;;;2.15;1.13;;;;;17.80;101562.00;;;;5050493;28;20692;-75
2021/08/17 03:49:02;;;;;;;2.72;1.23;;;;;17.80;101551.00;;;;5050173;28;20203;-75
2021/08/17 03:51:29;;;;;;;1.48;1.10;;;;;17.80;101557.00;;;;5049897;28;20246;-75
2021/08/17 03:53:56;;;;;;;1.42;0.88;;;;;17.80;101563.00;;;;5049570;28;20195;-75
2021/08/17 03:56:23;;;;;;;1.17;0.52;;;;;17.80;101562.00;;;;5049715;28;20223;-76
2021/08/17 03:58:50;;;;;;;1.90;1.10;;;;;17.80;101573.00;;;;5049919;28;20196;-76
2021/08/17 04:01:20;;;;;;;1.92;0.60;;;;;17.80;101571.00;;;;5049483;28;20234;-75
2021/08/17 04:03:47;;;;;;;1.55;0.82;;;;;17.70;101563.00;;;;5049305;28;20275;-75
2021/08/17 04:06:14;;;;;;;1.25;0.80;;;;;17.70;101562.00;;;;5049427;28;20885;-76
2021/08/17 04:08:41;;;;;;;2.88;1.10;;;;;17.80;101562.00;;;;5049692;28;20196;-76
2021/08/17 04:11:09;;;;;;;1.85;0.73;;;;;17.70;101566.00;;;;5049471;28;20195;-76
2021/08/17 04:13:37;;;;;;;2.42;1.02;;;;;17.70;101571.00;;;;5049284;28;20199;-76
2021/08/17 04:16:05;;;;;;;1.85;1.17;;;;;17.70;101568.00;;;;5049541;28;20251;-75
2021/08/17 04:18:34;;;;;;;1.40;0.85;;;;;17.70;101565.00;;;;5049446;28;20310;-75
2021/08/17 04:21:02;;;;;;;1.80;0.88;;;;;17.70;101572.00;;;;5049415;28;20210;-76
2021/08/17 04:23:29;;;;;;;1.33;0.80;;;;;17.70;101572.00;;;;5049077;28;20199;-76
2021/08/17 04:25:56;;;;;;;4.32;1.20;;;;;17.70;101566.00;;;;5049103;28;20230;-76
2021/08/17 04:28:23;;;;;;;2.53;1.05;;;;;17.70;101566.00;;;;5048482;28;20210;-76
2021/08/17 04:30:50;;;;;;;2.65;0.90;;;;;17.70;101571.00;;;;5049583;28;20211;-76
2021/08/17 04:33:18;;;;;;;0.93;0.60;;;;;17.70;101566.00;;;;5049220;28;20200;-76
2021/08/17 04:35:46;;;;;;;1.40;1.00;;;;;17.70;101564.00;;;;5049747;28;20334;-75
2021/08/17 04:38:13;;;;;;;3.75;0.95;;;;;17.70;101567.00;;;;5048951;28;20203;-76
2021/08/17 04:40:41;;;;;;;2.13;0.85;;;;;17.70;101566.00;;;;5048384;28;20254;-76
2021/08/17 04:43:08;;;;;;;2.25;1.05;;;;;17.70;101572.00;;;;5049326;28;20214;-76
2021/08/17 04:45:35;;;;;;;1.55;1.02;;;;;17.70;101580.00;;;;5049117;28;20210;-76
2021/08/17 04:48:03;;;;;;;3.10;0.95;;;;;17.70;101568.00;;;;5049073;28;20554;-76
2021/08/17 04:50:30;;;;;;;1.90;0.90;;;;;17.70;101575.00;;;;5048260;28;20623;-76
2021/08/17 04:52:59;;;;;;;3.22;1.13;;;;;17.70;101569.00;;;;5056616;28;20252;-77
2021/08/17 04:55:26;;;;;;;2.92;1.02;;;;;17.70;101570.00;;;;5068740;28;20203;-77
2021/08/17 04:57:55;;;;;;;3.10;0.85;;;;;17.70;101574.00;;;;5068440;28;20237;-74
2021/08/17 05:00:24;;;;;;;1.30;0.65;;;;;17.70;101577.00;;;;5068965;28;20221;-74
2021/08/17 05:02:51;;;;;;;1.90;1.10;;;;;17.70;101578.00;;;;5068947;28;20666;-74
2021/08/17 05:05:19;;;;;;;1.83;1.05;;;;;17.70;101569.00;;;;5068645;28;20676;-74
2021/08/17 05:07:48;;;;;;;1.85;1.25;;;;;17.70;101567.00;;;;5069192;28;20207;-74
2021/08/17 05:10:19;;;;;;;2.47;1.30;;;;;17.70;101582.00;;;;5067352;28;20289;-74
2021/08/17 05:12:47;;;;;;;2.65;1.00;;;;;17.80;101582.00;;;;5068791;28;20206;-74
2021/08/17 05:15:15;;;;;;;1.85;1.08;;;;;17.80;101593.00;;;;5068471;28;20613;-74
2021/08/17 05:17:43;;;;;;;2.95;1.35;;;;;17.80;101601.00;;;;5068291;28;20230;-74
2021/08/17 05:20:12;;;;;;;2.10;1.20;;;;;17.80;101586.00;;;;5068793;28;20199;-75
2021/08/17 05:22:39;;;;;;;2.15;1.08;;;;;17.90;101591.00;;;;5068942;28;20202;-75
2021/08/17 05:25:07;;;;;;;3.08;1.50;;;;;17.90;101589.00;;;;5067906;28;20199;-75
2021/08/17 05:27:36;;;;;;;2.47;1.80;;;;;18.00;101587.00;;;;5067897;28;20195;-75
2021/08/17 05:30:05;;;;;;;3.60;1.85;;;;;18.10;101578.00;;;;5069028;28;20195;-76
2021/08/17 05:32:32;;;;;;;3.00;1.95;;;;;18.10;101576.00;;;;5068975;28;20210;-75
2021/08/17 05:35:00;;;;;;;3.10;1.98;;;;;18.20;101577.00;;;;5068215;28;20210;-75
2021/08/17 05:37:27;;;;;;;3.33;2.38;;;;;18.30;101572.00;;;;5067906;28;20239;-75
2021/08/17 05:39:54;;;;;;;5.20;2.05;;;;;18.30;101575.00;;;;5068532;28;20222;-75
2021/08/17 05:42:23;;;;;;;5.07;1.80;;;;;18.40;101578.00;;;;5068254;28;20214;-75
2021/08/17 05:44:51;;;;;;;4.75;2.53;;;;;18.50;101579.00;;;;5052454;28;20203;-75
2021/08/17 05:47:19;;;;;;;2.65;1.52;;;;;18.60;101580.00;;;;5048575;28;20207;-76
2021/08/17 05:49:47;;;;;;;4.95;2.25;;;;;18.70;101576.00;;;;5048213;28;20203;-75
2021/08/17 05:52:15;;;;;;;5.00;2.40;;;;;18.70;101566.00;;;;5049412;28;20210;-75
2021/08/17 05:54:43;;;;;;;4.78;2.30;;;;;18.80;101565.00;;;;5059461;28;20191;-75
2021/08/17 05:57:10;;;;;;;6.82;3.47;;;;;18.90;101550.00;;;;5048598;28;20223;-75
2021/08/17 05:59:38;;;;;;;6.47;2.85;;;;;19.00;101561.00;;;;5048807;28;20654;-75
2021/08/17 06:02:06;;;;;;;7.43;3.67;;;;;19.00;101558.00;;;;5065883;28;20218;-75
2021/08/17 06:04:34;;;;;;;5.07;3.17;;;;;19.20;101559.00;;;;5071959;28;20207;-75
2021/08/17 06:07:01;;;;;;;7.75;4.40;;;;;19.20;101566.00;;;;5071620;28;20691;-75
2021/08/17 06:09:28;;;;;;;6.15;3.28;;;;;19.30;101562.00;;;;5070429;28;20213;-75
2021/08/17 06:11:57;;;;;;;5.90;3.33;;;;;19.40;101578.00;;;;5071616;28;20204;-76
2021/08/17 06:14:26;;;;;;;6.38;3.83;;;;;19.50;101567.00;;;;5071055;28;20268;-75
2021/08/17 06:16:53;;;;;;;7.85;3.92;;;;;19.60;101562.00;;;;5071267;28;20226;-75
2021/08/17 06:19:21;;;;;;;8.50;4.45;;;;;19.70;101560.00;;;;5070370;28;20210;-75
2021/08/17 06:21:49;;;;;;;7.63;4.10;;;;;19.80;101573.00;;;;5070807;28;20579;-75
2021/08/17 06:24:16;;;;;;;11.15;4.82;;;;;19.90;101571.00;;;;5070602;28;20203;-75
2021/08/17 06:26:43;;;;;;;6.50;4.07;;;;;20.00;101567.00;;;;5070774;28;20218;-76
2021/08/17 06:29:11;;;;;;;8.07;4.75;;;;;20.10;101565.00;;;;5071345;28;20207;-76
2021/08/17 06:31:38;;;;;;;6.75;4.25;;;;;20.10;101577.00;;;;5071111;28;20203;-75
2021/08/17 06:34:06;;;;;;;7.35;4.32;;;;;20.20;101577.00;;;;5070491;28;20202;-76
2021/08/17 06:36:36;;;;;;;7.72;4.72;;;;;20.30;101572.00;;;;5070513;28;20223;-76
2021/08/17 06:39:04;;;;;;;9.52;5.38;;;;;20.40;101577.00;;;;5071719;28;20272;-75
2021/08/17 06:41:32;;;;;;;7.88;4.78;;;;;20.40;101564.00;;;;5070802;28;20210;-75
2021/08/17 06:43:59;;;;;;;9.25;5.03;;;;;20.50;101575.00;;;;5062242;28;20213;-76
2021/08/17 06:46:27;;;;;;;7.88;4.57;;;;;20.60;101575.00;;;;5051211;28;20249;-77
2021/08/17 06:48:55;;;;;;;7.90;4.78;;;;;20.60;101569.00;;;;5051412;28;20269;-76
2021/08/17 06:51:22;;;;;;;8.93;4.97;;;;;20.70;101556.00;;;;5051399;28;20525;-76
2021/08/17 06:53:51;;;;;;;7.78;4.53;;;;;20.70;101551.00;;;;5051168;28;20708;-76
2021/08/17 06:56:18;;;;;;;9.50;4.85;;;;;20.80;101558.00;;;;5049973;28;20199;-76
2021/08/17 06:58:45;;;;;;;9.55;5.68;;;;;20.90;101570.00;;;;5050833;28;20235;-76
2021/08/17 07:01:12;;;;;;;10.15;4.78;;;;;20.90;101578.00;;;;5050911;28;20195;-77
2021/08/17 07:03:40;;;;;;;10.52;5.32;;;;;21.00;101569.00;;;;5051026;28;20206;-76
2021/08/17 07:06:07;;;;;;;8.45;4.45;;;;;21.00;101579.00;;;;5050847;28;20207;-76
2021/08/17 07:08:34;;;;;;;9.23;5.25;;;;;21.10;101574.00;;;;5050934;28;20204;-76
2021/08/17 07:11:03;;;;;;;11.20;6.05;;;;;21.10;101577.00;;;;5050776;28;20211;-76
2021/08/17 07:13:30;;;;;;;12.80;5.30;;;;;21.20;101582.00;;;;5050654;28;20202;-76
2021/08/17 07:15:57;;;;;;;12.40;5.65;;;;;21.30;101574.00;;;;5050216;28;20203;-77
2021/08/17 07:18:25;;;;;;;11.45;5.72;;;;;21.30;101571.00;;;;5049928;28;20604;-77
2021/08/17 07:20:53;;;;;;;22.05;5.80;;;;;21.40;101570.00;;;;5050616;28;20207;-77
2021/08/17 07:23:21;;;;;;;9.50;5.30;;;;;21.40;101569.00;;;;5050635;28;20223;-76
2021/08/17 07:25:49;;;;;;;10.98;5.95;;;;;21.50;101561.00;;;;5050964;28;20215;-76
2021/08/17 07:28:18;;;;;;;7.18;4.75;;;;;21.50;101551.00;;;;5050338;28;20636;-76
2021/08/17 07:30:46;;;;;;;9.15;5.18;;;;;21.60;101547.00;;;;5049752;28;20211;-76
2021/08/17 07:33:13;;;;;;;15.77;6.75;;;;;21.70;101550.00;;;;5050102;28;20214;-76
2021/08/17 07:35:40;;;;;;;10.73;5.47;;;;;21.70;101556.00;;;;5049656;28;20234;-76
2021/08/17 07:38:07;;;;;;;11.52;4.82;;;;;21.80;101553.00;;;;5049898;28;20230;-77
2021/08/17 07:40:35;;;;;;;11.50;5.68;;;;;21.90;101560.00;;;;5050041;28;20220;-76
2021/08/17 07:43:02;;;;;;;7.72;4.82;;;;;22.00;101557.00;;;;5051195;28;20203;-77
2021/08/17 07:45:31;;;;;;;9.20;4.80;;;;;22.00;101562.00;;;;5069084;28;20202;-77
2021/08/17 07:47:59;;;;;;;12.20;4.75;;;;;22.10;101559.00;;;;5070012;28;20695;-77
2021/08/17 07:50:26;;;;;;;9.15;5.25;;;;;22.10;101560.00;;;;5069627;28;20203;-77
2021/08/17 07:52:54;;;;;;;8.07;4.90;;;;;22.10;101563.00;;;;5069658;28;20209;-77
2021/08/17 07:55:21;;;;;;;7.93;4.90;;;;;22.20;101566.00;;;;5069970;28;20209;-76
2021/08/17 07:57:48;;;;;;;7.82;4.32;;;;;22.20;101563.00;;;;5069826;28;20233;-77
2021/08/17 08:00:16;;;;;;;6.95;4.03;;;;;22.30;101554.00;;;;5068931;28;20207;-77
2021/08/17 08:02:45;;;;;;;9.02;4.20;;;;;22.30;101557.00;;;;5069641;28;20199;-77
2021/08/17 08:05:12;;;;;;;7.72;4.15;;;;;22.30;101551.00;;;;5069718;28;20206;-77
2021/08/17 08:07:40;;;;;;;8.02;4.57;;;;;22.30;101552.00;;;;5069427;28;20215;-76
2021/08/17 08:10:08;;;;;;;8.13;4.22;;;;;22.40;101549.00;;;;5068975;28;20218;-77
2021/08/17 08:12:35;;;;;;;7.70;3.97;;;;;22.40;101554.00;;;;5069704;28;20206;-77
2021/08/17 08:15:02;;;;;;;6.43;3.88;;;;;22.40;101556.00;;;;5069705;28;20609;-76
2021/08/17 08:17:30;;;;;;;8.35;3.90;;;;;22.40;101554.00;;;;5068245;28;20234;-76
2021/08/17 08:19:58;;;;;;;9.25;3.55;;;;;22.40;101555.00;;;;5069052;28;20707;-76
2021/08/17 08:22:25;;;;;;;6.35;3.22;;;;;22.40;101560.00;;;;5069032;28;20222;-76
2021/08/17 08:24:53;;;;;;;6.47;3.70;;;;;22.40;101556.00;;;;5069593;28;20210;-77
2021/08/17 08:27:20;;;;;;;5.50;3.47;;;;;22.40;101556.00;;;;5067943;28;20203;-77
2021/08/17 08:29:47;;;;;;;8.15;3.58;;;;;22.40;101566.00;;;;5069246;28;20210;-77
2021/08/17 08:32:14;;;;;;;8.30;3.67;;;;;22.40;101560.00;;;;5068368;28;20541;-77
2021/08/17 08:34:41;;;;;;;7.30;3.22;;;;;22.40;101555.00;;;;5068300;28;20214;-77
2021/08/17 08:37:10;;;;;;;7.22;3.40;;;;;22.40;101555.00;;;;5068836;28;20226;-77
2021/08/17 08:39:39;;;;;;;6.22;3.67;;;;;22.40;101564.00;;;;5069211;28;20225;-77
2021/08/17 08:42:06;;;;;;;6.45;3.30;;;;;22.40;101550.00;;;;5067585;28;20229;-79
2021/08/17 08:44:34;;;;;;;13.55;4.20;;;;;22.40;101554.00;;;;5048606;28;20207;-77
2021/08/17 08:47:01;;;;;;;7.38;3.00;;;;;22.40;101558.00;;;;5048647;28;20203;-77
2021/08/17 08:49:31;;;;;;;6.57;3.05;;;;;22.40;101568.00;;;;5047766;28;20669;-77
2021/08/17 08:52:00;;;;;;;7.35;3.50;;;;;22.50;101579.00;;;;5049215;28;20203;-77
2021/08/17 08:54:29;;;;;;;8.27;3.55;;;;;22.50;101584.00;;;;5060138;28;20202;-77
2021/08/17 08:56:56;;;;;;;7.35;2.75;;;;;22.60;101590.00;;;;5048004;28;20214;-77
2021/08/17 08:59:23;;;;;;;5.97;3.00;;;;;22.60;101598.00;;;;5048241;28;20234;-77
2021/08/17 09:01:51;;;;;;;5.45;3.67;;;;;22.60;101590.00;;;;5047646;28;20206;-77
2021/08/17 09:04:25;;;;;;;6.93;3.78;;;;;22.60;101595.00;;;;5048490;28;20297;-76
2021/08/17 09:06:53;;;;;;;6.70;4.05;;;;;22.60;101581.00;;;;5048349;28;20215;-76
2021/08/17 09:09:21;;;;;;;7.45;3.17;;;;;22.70;101572.00;;;;5066620;28;20267;-77
2021/08/17 09:11:52;;;;;;;7.38;3.28;;;;;22.70;101572.00;;;;5068513;28;20202;-77
2021/08/17 09:14:22;;;;;;;5.60;3.08;;;;;22.70;101586.00;;;;5069051;28;20203;-77
2021/08/17 09:16:52;;;;;;;3.35;2.53;;;;;22.70;101577.00;;;;5069399;28;20210;-78
2021/08/17 09:19:31;;;;;;;8.70;3.65;;;;;22.60;101577.00;;;;5068445;28;20230;-77
2021/08/17 09:22:01;;;;;;;5.07;3.15;;;;;22.70;101577.00;;;;5068705;28;20199;-77
2021/08/17 09:24:30;;;;;;;4.72;2.50;;;;;22.70;101567.00;;;;5067408;28;20203;-77
2021/08/17 09:27:00;;;;;;;5.85;2.50;;;;;22.70;101552.00;;;;5068724;28;20207;-77
2021/08/17 09:29:39;;;;;;;5.15;3.33;;;;;22.60;101558.00;;;;5067942;28;20199;-78
2021/08/17 09:32:16;;;;;;;3.70;2.65;;;;;22.60;101543.00;;;;5068408;28;20664;-78
2021/08/17 09:34:45;;;;;;;4.88;2.60;;;;;22.60;101539.00;;;;5068903;28;20202;-77
2021/08/17 09:37:13;;;;;;;5.40;2.30;;;;;22.60;101536.00;;;;5068247;28;20719;-77
2021/08/17 09:39:45;;;;;;;4.25;2.22;;;;;22.60;101538.00;;;;5072265;28;20249;-77
2021/08/17 09:42:24;;;;;;;4.22;2.22;;;;;22.50;101549.00;;;;5061462;28;20286;-77
2021/08/17 09:45:13;;;;;;;6.13;2.45;;;;;22.50;101548.00;;;;5052844;28;20211;-78
2021/08/17 09:47:42;;;;;;;5.97;2.30;;;;;22.60;101546.00;;;;5052149;28;20204;-77
2021/08/17 09:50:26;;;;;;;4.13;2.25;;;;;22.50;101561.00;;;;5052076;28;20215;-77
2021/08/17 09:53:08;;;;;;;5.75;2.20;;;;;22.50;101562.00;;;;5052042;28;20199;-77
2021/08/17 09:55:45;;;;;;;8.00;2.85;;;;;22.50;101569.00;;;;5052098;28;20214;-76
2021/08/17 09:58:25;;;;;;;4.60;2.15;;;;;22.50;101573.00;;;;5052978;28;20230;-77
2021/08/17 10:00:55;;;;;;;5.18;2.35;;;;;22.50;101568.00;;;;5072211;28;20218;-77
2021/08/17 10:03:23;;;;;;;4.68;2.10;;;;;22.50;101569.00;;;;5072172;28;20195;-78
2021/08/17 10:05:51;;;;;;;3.72;2.47;;;;;22.50;101564.00;;;;5072520;28;20222;-76
2021/08/17 10:08:21;;;;;;;5.30;2.47;;;;;22.50;101563.00;;;;5070705;28;20748;-77
2021/08/17 10:10:50;;;;;;;4.53;1.83;;;;;22.50;101560.00;;;;5071900;28;20724;-77
2021/08/17 10:13:19;;;;;;;4.22;2.05;;;;;22.50;101563.00;;;;5071887;28;20213;-77
2021/08/17 10:15:49;;;;;;;4.13;2.30;;;;;22.40;101551.00;;;;5065065;28;20847;-77
2021/08/17 10:18:20;;;;;;;3.95;2.05;;;;;22.40;101554.00;;;;5051699;28;20226;-77
2021/08/17 10:20:50;;;;;;;2.83;1.80;;;;;22.50;101555.00;;;;5051653;28;20207;-77
2021/08/17 10:23:18;;;;;;;2.75;1.90;;;;;22.50;101551.00;;;;5050867;28;20672;-77
2021/08/17 10:25:47;;;;;;;2.85;1.83;;;;;22.50;101546.00;;;;5051319;28;20199;-77
2021/08/17 10:28:28;;;;;;;5.65;2.08;;;;;22.40;101534.00;;;;5051413;28;20206;-77
2021/08/17 10:30:57;;;;;;;4.18;2.17;;;;;22.50;101541.00;;;;5052067;28;20204;-77
2021/08/17 10:33:41;;;;;;;4.38;2.60;;;;;22.40;101539.00;;;;5051321;28;20228;-78
2021/08/17 10:36:10;;;;;;;3.17;1.95;;;;;22.60;101537.00;;;;5051112;28;20235;-77
2021/08/17 10:38:48;;;;;;;4.63;2.45;;;;;22.50;101537.00;;;;5051562;28;20231;-77
2021/08/17 10:41:30;;;;;;;6.20;2.40;;;;;22.50;101543.00;;;;5051028;28;20213;-77
2021/08/17 10:44:15;;;;;;;4.22;1.85;;;;;22.50;101548.00;;;;5051640;28;20196;-77
2021/08/17 10:47:02;;;;;;;7.32;2.35;;;;;22.50;101544.00;;;;5051001;28;20203;-77
2021/08/17 10:49:49;;;;;;;5.88;1.83;;;;;22.40;101550.00;;;;5053536;28;20210;-75
2021/08/17 10:52:32;;;;;;;5.28;2.30;;;;;22.40;101553.00;;;;5070960;28;20205;-75
2021/08/17 10:55:37;;;;;;;5.30;2.00;;;;;22.40;101554.00;;;;5071296;28;20240;-75
2021/08/17 10:58:06;;;;;;;4.60;2.45;;;;;22.50;101563.00;;;;5070371;28;20280;-75
2021/08/17 11:00:56;;;;;;;2.85;1.80;;;;;22.30;101552.00;;;;5071009;28;20635;-74
2021/08/17 11:03:49;;;;;;;3.70;1.88;;;;;22.30;101559.00;;;;5070675;28;20195;-75
2021/08/17 11:06:36;;;;;;;4.60;2.70;;;;;22.30;101557.00;;;;5069800;28;20211;-76
2021/08/17 11:09:04;;;;;;;4.28;2.15;;;;;22.40;101549.00;;;;5070755;28;20195;-77
2021/08/17 11:11:32;;;;;;;3.17;2.03;;;;;22.30;101552.00;;;;5070539;28;20206;-76
2021/08/17 11:14:11;;;;;;;4.65;2.05;;;;;22.20;101544.00;;;;5071183;28;20206;-77
2021/08/17 11:16:47;;;;;;;6.22;1.98;;;;;22.20;101547.00;;;;5071098;28;20198;-77
2021/08/17 11:19:18;;;;;;;5.00;1.95;;;;;22.20;101550.00;;;;5070638;28;20699;-76
2021/08/17 11:21:48;;;;;;;2.35;1.58;;;;;22.10;101557.00;;;;5070366;28;20191;-77
2021/08/17 11:24:19;;;;;;;3.13;2.17;;;;;22.10;101559.00;;;;5069696;28;20202;-77
2021/08/17 11:26:50;;;;;;;3.38;1.90;;;;;22.10;101561.00;;;;5070102;28;20253;-77
2021/08/17 11:29:25;;;;;;;4.18;2.05;;;;;22.00;101562.00;;;;5070443;28;20190;-77
2021/08/17 11:31:53;;;;;;;3.17;1.48;;;;;22.00;101561.00;;;;5070635;28;20210;-77
2021/08/17 11:34:24;;;;;;;3.67;1.73;;;;;21.90;101566.00;;;;5070348;28;20256;-77
2021/08/17 11:36:53;;;;;;;3.05;1.67;;;;;21.90;101569.00;;;;5069760;28;20222;-77
2021/08/17 11:39:22;;;;;;;3.45;2.03;;;;;21.80;101565.00;;;;5070266;28;20238;-77
2021/08/17 11:41:49;;;;;;;4.28;2.08;;;;;21.80;101562.00;;;;5062205;28;20199;-77
2021/08/17 11:44:18;;;;;;;1.77;1.35;;;;;21.70;101559.00;;;;5069884;28;20194;-76
2021/08/17 11:46:46;;;;;;;2.33;1.80;;;;;21.60;101561.00;;;;5069858;28;20234;-77
2021/08/17 11:49:25;;;;;;;2.00;1.63;;;;;21.50;101565.00;;;;5070124;28;20202;-77
2021/08/17 11:52:04;;;;;;;2.58;1.75;;;;;21.40;101554.00;;;;5070248;28;20684;-77
2021/08/17 11:54:32;;;;;;;1.92;1.63;;;;;21.50;101558.00;;;;5057556;28;20196;-77
2021/08/17 11:57:02;;;;;;;3.30;1.75;;;;;21.40;101551.00;;;;5069602;28;20195;-77
2021/08/17 11:59:42;;;;;;;2.72;1.80;;;;;21.30;101555.00;;;;5049187;28;20633;-77
2021/08/17 12:02:10;;;;;;;2.22;1.55;;;;;21.30;101554.00;;;;5049590;28;20206;-77
2021/08/17 12:04:38;;;;;;;2.33;1.70;;;;;21.30;101560.00;;;;5050156;28;20204;-77
2021/08/17 12:07:16;;;;;;;2.67;1.73;;;;;21.20;101546.00;;;;5049861;28;20199;-76
2021/08/17 12:09:44;;;;;;;2.08;1.25;;;;;21.30;101542.00;;;;5049476;28;20214;-77
2021/08/17 12:12:15;;;;;;;2.40;1.73;;;;;21.20;101547.00;;;;5049271;28;20203;-77
2021/08/17 12:14:43;;;;;;;2.50;1.83;;;;;21.20;101538.00;;;;5050288;28;21054;-78
2021/08/17 12:17:20;;;;;;;2.10;1.60;;;;;21.20;101543.00;;;;5049504;28;20207;-77
2021/08/17 12:19:50;;;;;;;3.90;2.13;;;;;21.20;101547.00;;;;5048843;28;20321;-78